createdAt,value
2023-04-12T00:00:08.229Z,7.43
2023-04-12T00:00:19.672Z,7.43
2023-04-12T00:00:31.232Z,7.40
2023-04-12T00:00:42.599Z,7.75
2023-04-12T00:00:53.978Z,8.00
2023-04-12T00:01:05.962Z,7.78
2023-04-12T00:01:17.309Z,7.55
2023-04-12T00:01:28.812Z,7.20
2023-04-12T00:01:40.189Z,6.88
2023-04-12T00:01:51.665Z,7.00
2023-04-12T00:02:05.694Z,7.22
2023-04-12T00:02:17.191Z,7.43
2023-04-12T00:02:28.797Z,7.65
2023-04-12T00:02:40.674Z,7.60
2023-04-12T00:02:52.335Z,7.43
2023-04-12T00:03:06.676Z,7.72
2023-04-12T00:03:19.765Z,8.02
2023-04-12T00:03:31.594Z,7.63
2023-04-12T00:03:43.231Z,7.63
2023-04-12T00:03:55.099Z,7.72
2023-04-12T00:04:15.411Z,7.45
2023-04-12T00:04:26.931Z,7.00
2023-04-12T00:04:38.509Z,7.50
2023-04-12T00:04:50.422Z,7.27
2023-04-12T00:05:05.634Z,7.50
2023-04-12T00:05:17.249Z,7.35
2023-04-12T00:05:29.766Z,7.55
2023-04-12T00:05:41.619Z,7.78
2023-04-12T00:05:53.464Z,7.93
2023-04-12T00:06:07.304Z,8.00
2023-04-12T00:06:18.763Z,7.95
2023-04-12T00:06:31.342Z,7.63
2023-04-12T00:06:43.139Z,7.57
2023-04-12T00:06:55.507Z,8.23
2023-04-12T00:07:08.188Z,8.32
2023-04-12T00:07:19.670Z,7.97
2023-04-12T00:07:31.352Z,7.30
2023-04-12T00:07:42.835Z,7.55
2023-04-12T00:07:54.461Z,7.70
2023-04-12T00:08:06.884Z,7.60
2023-04-12T00:08:18.212Z,7.43
2023-04-12T00:08:30.044Z,6.85
2023-04-12T00:08:43.438Z,7.05
2023-04-12T00:08:55.159Z,7.47
2023-04-12T00:09:07.190Z,7.55
2023-04-12T00:09:20.244Z,7.35
2023-04-12T00:09:33.216Z,7.30
2023-04-12T00:09:44.583Z,7.07
2023-04-12T00:09:56.501Z,7.38
2023-04-12T00:10:11.306Z,7.28
2023-04-12T00:10:22.895Z,7.78
2023-04-12T00:10:34.325Z,7.85
2023-04-12T00:10:45.709Z,7.50
2023-04-12T00:10:57.016Z,7.05
2023-04-12T00:11:08.387Z,6.72
2023-04-12T00:11:19.837Z,6.68
2023-04-12T00:11:31.489Z,7.13
2023-04-12T00:11:43.844Z,7.47
2023-04-12T00:11:55.202Z,7.57
2023-04-12T00:12:08.660Z,7.53
2023-04-12T00:12:20.073Z,7.18
2023-04-12T00:12:31.447Z,7.20
2023-04-12T00:12:42.825Z,7.43
2023-04-12T00:12:54.194Z,7.65
2023-04-12T00:13:05.681Z,7.63
2023-04-12T00:13:17.109Z,7.25
2023-04-12T00:13:29.379Z,7.28
2023-04-12T00:13:42.354Z,7.22
2023-04-12T00:13:54.997Z,7.32
2023-04-12T00:14:06.550Z,7.72
2023-04-12T00:14:17.946Z,7.63
2023-04-12T00:14:30.005Z,8.00
2023-04-12T00:14:41.376Z,7.95
2023-04-12T00:14:52.767Z,7.63
2023-04-12T00:15:06.169Z,7.32
2023-04-12T00:15:20.010Z,7.80
2023-04-12T00:15:31.441Z,7.88
2023-04-12T00:15:42.930Z,7.55
2023-04-12T00:15:56.737Z,7.60
2023-04-12T00:16:09.166Z,7.60
2023-04-12T00:16:20.924Z,7.47
2023-04-12T00:16:32.611Z,7.03
2023-04-12T00:16:44.276Z,7.03
2023-04-12T00:16:55.908Z,7.18
2023-04-12T00:17:07.485Z,7.18
2023-04-12T00:17:18.898Z,7.47
2023-04-12T00:17:30.360Z,7.70
2023-04-12T00:17:41.816Z,7.85
2023-04-12T00:17:53.276Z,7.57
2023-04-12T00:18:04.734Z,7.18
2023-04-12T00:18:16.257Z,6.65
2023-04-12T00:18:27.630Z,6.70
2023-04-12T00:18:38.977Z,6.80
2023-04-12T00:18:50.418Z,7.00
2023-04-12T00:19:01.801Z,7.20
2023-04-12T00:19:13.261Z,7.47
2023-04-12T00:19:24.648Z,7.32
2023-04-12T00:19:38.529Z,6.97
2023-04-12T00:19:52.459Z,6.82
2023-04-12T00:20:04.052Z,7.07
2023-04-12T00:20:15.445Z,7.03
2023-04-12T00:20:28.212Z,7.03
2023-04-12T00:20:39.583Z,7.53
2023-04-12T00:20:51.642Z,8.05
2023-04-12T00:21:06.607Z,7.70
2023-04-12T00:21:18.068Z,7.28
2023-04-12T00:21:29.526Z,6.97
2023-04-12T00:21:40.893Z,6.95
2023-04-12T00:21:54.819Z,7.13
2023-04-12T00:22:06.182Z,7.20
2023-04-12T00:22:17.607Z,7.38
2023-04-12T00:22:29.026Z,7.47
2023-04-12T00:22:40.998Z,7.25
2023-04-12T00:22:52.376Z,7.35
2023-04-12T00:23:03.771Z,7.47
2023-04-12T00:23:15.110Z,7.43
2023-04-12T00:23:26.588Z,7.68
2023-04-12T00:23:37.987Z,7.82
2023-04-12T00:23:49.501Z,8.10
2023-04-12T00:24:00.903Z,8.05
2023-04-12T00:24:14.317Z,7.85
2023-04-12T00:24:25.905Z,7.53
2023-04-12T00:24:41.146Z,7.63
2023-04-12T00:24:52.494Z,7.57
2023-04-12T00:25:04.192Z,7.25
2023-04-12T00:25:15.551Z,7.20
2023-04-12T00:25:27.931Z,7.10
2023-04-12T00:25:39.339Z,7.03
2023-04-12T00:25:50.700Z,7.50
2023-04-12T00:26:02.050Z,7.85
2023-04-12T00:26:13.906Z,8.00
2023-04-12T00:26:25.381Z,7.25
2023-04-12T00:26:36.867Z,6.68
2023-04-12T00:26:48.257Z,6.95
2023-04-12T00:26:59.650Z,7.10
2023-04-12T00:27:12.061Z,7.22
2023-04-12T00:27:24.461Z,7.03
2023-04-12T00:27:36.044Z,7.30
2023-04-12T00:27:47.459Z,7.90
2023-04-12T00:27:58.908Z,7.97
2023-04-12T00:28:10.238Z,8.05
2023-04-12T00:28:23.125Z,7.72
2023-04-12T00:28:34.509Z,7.40
2023-04-12T00:28:45.888Z,7.00
2023-04-12T00:28:57.286Z,7.07
2023-04-12T00:29:08.720Z,7.22
2023-04-12T00:29:20.141Z,7.63
2023-04-12T00:29:32.432Z,7.78
2023-04-12T00:29:43.933Z,7.70
2023-04-12T00:29:57.652Z,7.63
2023-04-12T00:30:09.345Z,7.32
2023-04-12T00:30:20.702Z,7.10
2023-04-12T00:30:32.320Z,7.40
2023-04-12T00:30:43.985Z,7.25
2023-04-12T00:30:55.474Z,7.43
2023-04-12T00:31:07.477Z,7.70
2023-04-12T00:31:19.310Z,7.85
2023-04-12T00:31:30.797Z,7.63
2023-04-12T00:31:42.222Z,7.32
2023-04-12T00:31:53.685Z,7.53
2023-04-12T00:32:05.125Z,7.72
2023-04-12T00:32:16.511Z,7.68
2023-04-12T00:32:28.043Z,7.18
2023-04-12T00:32:39.581Z,7.05
2023-04-12T00:32:52.405Z,6.90
2023-04-12T00:33:03.901Z,6.47
2023-04-12T00:33:15.334Z,6.85
2023-04-12T00:33:26.699Z,7.03
2023-04-12T00:33:38.103Z,7.57
2023-04-12T00:33:49.649Z,7.78
2023-04-12T00:34:01.050Z,7.75
2023-04-12T00:34:12.402Z,7.78
2023-04-12T00:34:26.067Z,7.70
2023-04-12T00:34:37.447Z,8.15
2023-04-12T00:34:48.856Z,8.05
2023-04-12T00:35:02.816Z,7.53
2023-04-12T00:35:14.234Z,7.25
2023-04-12T00:35:25.633Z,7.07
2023-04-12T00:35:37.181Z,7.70
2023-04-12T00:35:48.611Z,7.75
2023-04-12T00:36:00.377Z,7.93
2023-04-12T00:36:11.935Z,7.78
2023-04-12T00:36:23.354Z,8.10
2023-04-12T00:36:35.790Z,8.10
2023-04-12T00:36:47.180Z,7.90
2023-04-12T00:36:58.684Z,7.60
2023-04-12T00:37:10.120Z,7.68
2023-04-12T00:37:21.537Z,7.75
2023-04-12T00:37:33.413Z,7.63
2023-04-12T00:37:45.827Z,7.15
2023-04-12T00:38:01.209Z,7.25
2023-04-12T00:38:12.545Z,7.63
2023-04-12T00:38:23.880Z,7.72
2023-04-12T00:38:36.720Z,7.65
2023-04-12T00:38:48.119Z,7.70
2023-04-12T00:38:59.508Z,7.57
2023-04-12T00:39:10.861Z,7.85
2023-04-12T00:39:22.265Z,8.02
2023-04-12T00:39:34.023Z,8.07
2023-04-12T00:39:45.610Z,7.95
2023-04-12T00:39:56.981Z,7.93
2023-04-12T00:40:10.283Z,8.05
2023-04-12T00:40:24.920Z,7.90
2023-04-12T00:40:41.648Z,7.40
2023-04-12T00:40:53.080Z,7.40
2023-04-12T00:41:05.644Z,7.40
2023-04-12T00:41:17.651Z,7.32
2023-04-12T00:41:29.053Z,7.72
2023-04-12T00:41:40.420Z,7.93
2023-04-12T00:41:51.770Z,7.55
2023-04-12T00:42:04.666Z,7.80
2023-04-12T00:42:16.050Z,7.80
2023-04-12T00:42:30.518Z,8.15
2023-04-12T00:42:42.152Z,8.35
2023-04-12T00:42:53.584Z,8.32
2023-04-12T00:43:05.040Z,8.10
2023-04-12T00:43:16.539Z,7.72
2023-04-12T00:43:27.965Z,7.90
2023-04-12T00:43:42.498Z,7.80
2023-04-12T00:43:53.912Z,8.02
2023-04-12T00:44:05.335Z,8.25
2023-04-12T00:44:16.745Z,8.38
2023-04-12T00:44:28.153Z,7.93
2023-04-12T00:44:39.547Z,7.68
2023-04-12T00:44:54.623Z,7.43
2023-04-12T00:45:09.630Z,7.60
2023-04-12T00:45:21.043Z,7.47
2023-04-12T00:45:32.496Z,7.38
2023-04-12T00:45:48.241Z,7.53
2023-04-12T00:46:01.956Z,7.57
2023-04-12T00:46:13.430Z,7.43
2023-04-12T00:46:25.058Z,7.43
2023-04-12T00:46:52.050Z,7.50
2023-04-12T00:47:04.435Z,8.30
2023-04-12T00:47:16.092Z,8.52
2023-04-12T00:47:28.359Z,8.27
2023-04-12T00:47:41.157Z,8.05
2023-04-12T00:47:53.384Z,7.90
2023-04-12T00:48:08.176Z,7.55
2023-04-12T00:48:19.723Z,7.38
2023-04-12T00:48:31.549Z,7.55
2023-04-12T00:48:43.804Z,7.93
2023-04-12T00:49:01.922Z,7.85
2023-04-12T00:49:16.403Z,7.95
2023-04-12T00:49:28.735Z,8.38
2023-04-12T00:49:42.978Z,8.18
2023-04-12T00:49:55.433Z,7.60
2023-04-12T00:50:07.529Z,7.60
2023-04-12T00:50:20.351Z,7.68
2023-04-12T00:50:32.802Z,7.80
2023-04-12T00:50:45.436Z,8.05
2023-04-12T00:51:01.028Z,8.23
2023-04-12T00:51:12.437Z,8.27
2023-04-12T00:51:24.120Z,8.38
2023-04-12T00:51:36.455Z,7.95
2023-04-12T00:51:48.909Z,7.70
2023-04-12T00:52:38.701Z,7.65
2023-04-12T00:53:00.190Z,7.80
2023-04-12T00:53:15.301Z,7.82
2023-04-12T00:53:28.231Z,7.75
2023-04-12T00:53:42.671Z,8.50
2023-04-12T00:53:57.442Z,8.77
2023-04-12T00:54:09.060Z,8.57
2023-04-12T00:54:23.639Z,8.05
2023-04-12T00:54:37.247Z,7.78
2023-04-12T00:54:49.529Z,8.02
2023-04-12T00:55:33.995Z,8.38
2023-04-12T00:55:48.442Z,8.52
2023-04-12T00:55:59.908Z,8.60
2023-04-12T00:56:11.354Z,8.30
2023-04-12T00:56:24.556Z,8.27
2023-04-12T00:56:37.748Z,8.00
2023-04-12T00:56:49.305Z,7.68
2023-04-12T00:57:01.609Z,7.50
2023-04-12T00:57:13.111Z,7.68
2023-04-12T00:57:24.739Z,8.07
2023-04-12T00:57:38.833Z,8.27
2023-04-12T00:57:50.521Z,8.43
2023-04-12T00:58:01.930Z,8.52
2023-04-12T00:58:14.333Z,8.60
2023-04-12T00:58:25.716Z,8.38
2023-04-12T00:58:37.249Z,8.02
2023-04-12T00:58:48.692Z,8.35
2023-04-12T00:59:00.639Z,8.23
2023-04-12T00:59:13.390Z,8.38
2023-04-12T00:59:27.911Z,8.30
2023-04-12T00:59:41.770Z,8.48
2023-04-12T00:59:53.302Z,8.57
2023-04-12T01:00:09.482Z,8.18
2023-04-12T01:00:20.995Z,8.23
2023-04-12T01:00:34.209Z,8.88
2023-04-12T01:00:45.688Z,8.80
2023-04-12T01:00:57.270Z,9.23
2023-04-12T01:01:09.009Z,9.35
2023-04-12T01:01:20.475Z,9.27
2023-04-12T01:01:31.944Z,9.02
2023-04-12T01:01:43.460Z,9.15
2023-04-12T01:01:57.050Z,9.35
2023-04-12T01:02:09.287Z,8.85
2023-04-12T01:02:20.884Z,8.15
2023-04-12T01:02:34.498Z,8.25
2023-04-12T01:02:47.885Z,8.70
2023-04-12T01:02:59.868Z,8.85
2023-04-12T01:03:11.550Z,8.65
2023-04-12T01:03:23.935Z,8.63
2023-04-12T01:03:35.816Z,8.52
2023-04-12T01:03:49.008Z,8.90
2023-04-12T01:04:00.608Z,8.70
2023-04-12T01:04:14.521Z,8.70
2023-04-12T01:04:28.161Z,8.82
2023-04-12T01:04:39.545Z,8.70
2023-04-12T01:04:51.016Z,8.25
2023-04-12T01:05:02.946Z,8.30
2023-04-12T01:05:19.308Z,8.45
2023-04-12T01:05:35.735Z,9.07
2023-04-12T01:05:54.513Z,9.10
2023-04-12T01:06:13.910Z,8.65
2023-04-12T01:06:46.576Z,9.00
2023-04-12T01:07:10.688Z,8.15
2023-04-12T01:07:40.624Z,8.93
2023-04-12T01:08:36.162Z,8.77
2023-04-12T01:09:03.526Z,8.75
2023-04-12T01:09:34.514Z,9.73
2023-04-12T01:10:00.882Z,9.57
2023-04-12T01:11:05.112Z,8.98
2023-04-12T01:11:31.382Z,9.23
2023-04-12T01:11:58.409Z,9.82
2023-04-12T01:12:30.823Z,8.98
2023-04-12T01:12:56.769Z,9.20
2023-04-12T01:13:21.094Z,9.13
2023-04-12T01:13:42.724Z,9.05
2023-04-12T01:14:07.007Z,9.13
2023-04-12T01:14:29.608Z,9.50
2023-04-12T01:14:58.225Z,9.05
2023-04-12T01:15:15.171Z,10.18
2023-04-12T01:15:29.623Z,9.82
2023-04-12T01:15:50.314Z,9.70
2023-04-12T01:16:19.417Z,9.43
2023-04-12T01:16:54.841Z,9.60
2023-04-12T01:17:10.810Z,9.77
2023-04-12T01:17:30.786Z,9.65
2023-04-12T01:17:52.045Z,9.88
2023-04-12T01:18:11.983Z,9.75
2023-04-12T01:18:25.578Z,9.80
2023-04-12T01:18:40.621Z,9.75
2023-04-12T01:18:56.782Z,10.07
2023-04-12T01:19:29.676Z,10.35
2023-04-12T01:20:06.335Z,9.82
2023-04-12T01:20:23.342Z,10.18
2023-04-12T01:20:47.858Z,10.02
2023-04-12T01:21:09.213Z,9.60
2023-04-12T01:21:57.182Z,10.07
2023-04-12T01:22:27.266Z,9.95
2023-04-12T01:22:52.496Z,9.52
2023-04-12T01:23:17.740Z,9.35
2023-04-12T01:23:47.956Z,9.60
2023-04-12T01:24:20.168Z,9.95
2023-04-12T01:24:37.301Z,10.23
2023-04-12T01:25:00.985Z,9.65
2023-04-12T01:25:36.310Z,9.60
2023-04-12T01:25:47.702Z,9.98
2023-04-12T01:26:15.874Z,9.77
2023-04-12T01:26:31.693Z,10.38
2023-04-12T01:26:48.744Z,9.93
2023-04-12T01:27:00.196Z,9.55
2023-04-12T01:27:11.873Z,10.20
2023-04-12T01:27:34.279Z,10.05
2023-04-12T01:27:49.721Z,9.23
2023-04-12T01:28:03.594Z,9.15
2023-04-12T01:28:17.077Z,9.43
2023-04-12T01:28:37.298Z,10.02
2023-04-12T01:28:52.996Z,10.10
2023-04-12T01:29:14.387Z,10.02
2023-04-12T01:29:28.989Z,10.27
2023-04-12T01:29:41.357Z,10.10
2023-04-12T01:29:56.573Z,10.13
2023-04-12T01:30:12.147Z,10.07
2023-04-12T01:30:27.927Z,10.23
2023-04-12T01:30:40.413Z,10.07
2023-04-12T01:30:52.715Z,9.90
2023-04-12T01:31:07.309Z,10.45
2023-04-12T01:31:21.277Z,10.90
2023-04-12T01:31:35.067Z,10.27
2023-04-12T01:31:55.258Z,9.73
2023-04-12T01:32:08.295Z,9.03
2023-04-12T01:32:20.842Z,9.50
2023-04-12T01:32:34.532Z,10.00
2023-04-12T01:32:50.018Z,9.93
2023-04-12T01:33:05.323Z,9.57
2023-04-12T01:33:18.263Z,10.23
2023-04-12T01:33:30.134Z,10.25
2023-04-12T01:33:45.093Z,10.27
2023-04-12T01:33:59.291Z,10.30
2023-04-12T01:34:12.996Z,9.95
2023-04-12T01:34:31.206Z,9.90
2023-04-12T01:34:44.367Z,10.63
2023-04-12T01:35:01.225Z,11.00
2023-04-12T01:35:14.746Z,10.23
2023-04-12T01:35:30.101Z,9.48
2023-04-12T01:35:42.947Z,10.00
2023-04-12T01:35:55.217Z,9.95
2023-04-12T01:36:15.328Z,9.82
2023-04-12T01:36:28.079Z,9.82
2023-04-12T01:36:41.360Z,9.77
2023-04-12T01:36:54.882Z,9.43
2023-04-12T01:37:07.883Z,10.02
2023-04-12T01:37:21.495Z,10.25
2023-04-12T01:37:34.052Z,9.93
2023-04-12T01:37:45.905Z,9.70
2023-04-12T01:37:59.217Z,9.93
2023-04-12T01:38:10.637Z,9.85
2023-04-12T01:38:22.448Z,9.68
2023-04-12T01:38:35.536Z,9.82
2023-04-12T01:38:48.336Z,9.95
2023-04-12T01:39:00.499Z,9.93
2023-04-12T01:39:12.134Z,9.82
2023-04-12T01:39:23.679Z,9.88
2023-04-12T01:39:35.775Z,9.93
2023-04-12T01:39:48.267Z,10.10
2023-04-12T01:40:03.189Z,9.68
2023-04-12T01:40:15.564Z,9.57
2023-04-12T01:40:28.717Z,10.07
2023-04-12T01:40:41.604Z,10.32
2023-04-12T01:40:53.833Z,10.82
2023-04-12T01:41:07.225Z,10.57
2023-04-12T01:41:18.852Z,10.15
2023-04-12T01:41:32.590Z,9.85
2023-04-12T01:41:44.201Z,10.05
2023-04-12T01:41:55.553Z,10.07
2023-04-12T01:42:06.895Z,10.02
2023-04-12T01:42:21.328Z,9.60
2023-04-12T01:42:33.228Z,10.00
2023-04-12T01:42:46.002Z,10.63
2023-04-12T01:43:06.326Z,10.52
2023-04-12T01:43:17.727Z,10.23
2023-04-12T01:43:29.094Z,10.45
2023-04-12T01:43:44.632Z,10.00
2023-04-12T01:43:56.225Z,9.65
2023-04-12T01:44:07.836Z,9.85
2023-04-12T01:44:19.373Z,10.10
2023-04-12T01:44:30.770Z,10.32
2023-04-12T01:44:42.397Z,10.20
2023-04-12T01:44:53.802Z,10.25
2023-04-12T01:45:06.009Z,10.02
2023-04-12T01:45:17.684Z,10.63
2023-04-12T01:45:36.576Z,10.60
2023-04-12T01:45:47.999Z,10.25
2023-04-12T01:45:59.747Z,10.10
2023-04-12T01:46:13.424Z,10.23
2023-04-12T01:46:25.115Z,10.27
2023-04-12T01:46:36.556Z,10.27
2023-04-12T01:46:48.666Z,10.02
2023-04-12T01:47:00.162Z,10.27
2023-04-12T01:47:12.104Z,10.18
2023-04-12T01:47:25.697Z,10.60
2023-04-12T01:47:40.768Z,10.25
2023-04-12T01:47:52.333Z,9.85
2023-04-12T01:48:06.528Z,9.88
2023-04-12T01:48:19.501Z,9.63
2023-04-12T01:48:30.990Z,9.80
2023-04-12T01:48:54.526Z,9.52
2023-04-12T01:49:06.155Z,10.52
2023-04-12T01:49:18.936Z,10.82
2023-04-12T01:49:42.809Z,10.13
2023-04-12T01:50:18.759Z,9.40
2023-04-12T01:50:36.220Z,10.23
2023-04-12T01:50:50.208Z,10.25
2023-04-12T01:51:13.688Z,10.25
2023-04-12T01:51:50.087Z,10.20
2023-04-12T01:52:08.251Z,10.73
2023-04-12T01:52:20.226Z,10.35
2023-04-12T01:52:36.660Z,9.75
2023-04-12T01:52:59.907Z,10.05
2023-04-12T01:53:20.902Z,9.80
2023-04-12T01:53:52.673Z,9.75
2023-04-12T01:54:08.670Z,9.32
2023-04-12T01:54:24.657Z,9.77
2023-04-12T01:54:39.091Z,10.30
2023-04-12T01:54:57.465Z,10.30
2023-04-12T01:55:10.997Z,10.77
2023-04-12T01:55:25.523Z,10.57
2023-04-12T01:55:38.957Z,10.52
2023-04-12T01:55:51.343Z,10.27
2023-04-12T01:56:08.577Z,9.93
2023-04-12T01:56:22.152Z,10.77
2023-04-12T01:56:37.190Z,11.18
2023-04-12T01:56:56.128Z,10.57
2023-04-12T01:57:08.429Z,10.65
2023-04-12T01:57:21.575Z,10.82
2023-04-12T01:57:37.073Z,10.88
2023-04-12T01:57:50.942Z,10.77
2023-04-12T01:58:03.198Z,10.70
2023-04-12T01:58:19.759Z,10.38
2023-04-12T01:58:31.837Z,10.15
2023-04-12T01:58:44.619Z,10.10
2023-04-12T01:58:57.204Z,10.50
2023-04-12T01:59:13.404Z,10.25
2023-04-12T01:59:32.501Z,10.35
2023-04-12T01:59:46.334Z,10.98
2023-04-12T01:59:59.708Z,10.95
2023-04-12T02:00:12.426Z,11.07
2023-04-12T02:00:25.034Z,10.43
2023-04-12T02:00:37.407Z,10.23
2023-04-12T02:00:50.845Z,10.80
2023-04-12T02:01:05.714Z,11.00
2023-04-12T02:01:20.139Z,10.50
2023-04-12T02:01:32.419Z,10.65
2023-04-12T02:01:44.760Z,10.50
2023-04-12T02:01:57.144Z,10.13
2023-04-12T02:02:09.435Z,10.38
2023-04-12T02:02:21.541Z,10.60
2023-04-12T02:02:34.662Z,10.55
2023-04-12T02:02:50.434Z,10.00
2023-04-12T02:03:02.126Z,10.20
2023-04-12T02:03:13.875Z,10.90
2023-04-12T02:03:26.904Z,10.93
2023-04-12T02:03:41.628Z,11.02
2023-04-12T02:03:53.807Z,11.27
2023-04-12T02:04:06.349Z,11.60
2023-04-12T02:04:19.552Z,11.23
2023-04-12T02:04:32.216Z,10.48
2023-04-12T02:04:44.487Z,10.30
2023-04-12T02:04:56.354Z,10.27
2023-04-12T02:05:12.285Z,10.63
2023-04-12T02:05:24.723Z,11.57
2023-04-12T02:05:36.266Z,11.43
2023-04-12T02:05:48.005Z,11.30
2023-04-12T02:06:00.085Z,10.77
2023-04-12T02:06:13.656Z,10.77
2023-04-12T02:06:26.257Z,10.35
2023-04-12T02:06:38.791Z,10.68
2023-04-12T02:06:51.225Z,10.90
2023-04-12T02:07:03.175Z,10.82
2023-04-12T02:07:15.611Z,10.90
2023-04-12T02:07:28.005Z,11.05
2023-04-12T02:07:41.869Z,11.15
2023-04-12T02:07:53.466Z,11.07
2023-04-12T02:08:05.736Z,11.07
2023-04-12T02:08:17.387Z,10.82
2023-04-12T02:08:29.262Z,10.52
2023-04-12T02:08:40.691Z,10.50
2023-04-12T02:08:59.801Z,10.07
2023-04-12T02:09:11.216Z,10.68
2023-04-12T02:09:22.742Z,11.38
2023-04-12T02:09:37.680Z,11.23
2023-04-12T02:09:49.071Z,10.32
2023-04-12T02:10:00.479Z,10.18
2023-04-12T02:10:15.353Z,10.43
2023-04-12T02:10:35.731Z,10.73
2023-04-12T02:10:47.138Z,10.60
2023-04-12T02:10:58.788Z,10.70
2023-04-12T02:11:11.596Z,10.82
2023-04-12T02:11:22.940Z,10.65
2023-04-12T02:11:36.482Z,10.80
2023-04-12T02:11:48.342Z,10.77
2023-04-12T02:11:59.751Z,10.88
2023-04-12T02:12:11.207Z,10.18
2023-04-12T02:12:23.221Z,9.88
2023-04-12T02:12:34.668Z,9.90
2023-04-12T02:12:46.026Z,10.27
2023-04-12T02:13:00.949Z,10.35
2023-04-12T02:13:12.362Z,11.10
2023-04-12T02:13:23.762Z,10.82
2023-04-12T02:13:35.268Z,10.90
2023-04-12T02:13:46.744Z,10.52
2023-04-12T02:13:58.470Z,10.48
2023-04-12T02:14:11.199Z,10.07
2023-04-12T02:14:22.825Z,10.43
2023-04-12T02:14:34.518Z,10.98
2023-04-12T02:14:45.966Z,10.57
2023-04-12T02:14:57.361Z,11.10
2023-04-12T02:15:09.007Z,11.32
2023-04-12T02:15:20.756Z,11.50
2023-04-12T02:15:34.349Z,11.07
2023-04-12T02:15:48.345Z,10.70
2023-04-12T02:15:59.698Z,10.82
2023-04-12T02:16:11.173Z,10.77
2023-04-12T02:16:27.343Z,10.30
2023-04-12T02:16:38.784Z,10.45
2023-04-12T02:16:50.226Z,10.65
2023-04-12T02:17:01.905Z,10.70
2023-04-12T02:17:14.336Z,10.20
2023-04-12T02:17:27.233Z,10.18
2023-04-12T02:17:38.675Z,10.93
2023-04-12T02:17:50.106Z,11.25
2023-04-12T02:18:01.693Z,11.20
2023-04-12T02:18:13.228Z,10.43
2023-04-12T02:18:24.748Z,10.05
2023-04-12T02:18:36.396Z,10.52
2023-04-12T02:18:47.788Z,10.88
2023-04-12T02:18:59.181Z,10.80
2023-04-12T02:19:10.822Z,10.75
2023-04-12T02:19:22.253Z,10.60
2023-04-12T02:19:36.210Z,10.60
2023-04-12T02:19:47.598Z,9.98
2023-04-12T02:19:58.945Z,9.85
2023-04-12T02:20:10.823Z,10.00
2023-04-12T02:20:23.987Z,10.65
2023-04-12T02:20:35.512Z,10.73
2023-04-12T02:20:47.201Z,10.55
2023-04-12T02:20:58.591Z,10.68
2023-04-12T02:21:09.953Z,11.10
2023-04-12T02:21:21.544Z,10.82
2023-04-12T02:21:42.448Z,10.63
2023-04-12T02:21:53.885Z,10.20
2023-04-12T02:22:05.314Z,10.13
2023-04-12T02:22:16.763Z,10.55
2023-04-12T02:22:30.629Z,10.68
2023-04-12T02:22:41.964Z,10.90
2023-04-12T02:22:54.118Z,10.63
2023-04-12T02:23:05.673Z,11.13
2023-04-12T02:23:18.089Z,10.75
2023-04-12T02:23:29.543Z,11.00
2023-04-12T02:23:41.011Z,10.82
2023-04-12T02:23:52.489Z,10.75
2023-04-12T02:24:04.027Z,10.50
2023-04-12T02:24:16.602Z,10.68
2023-04-12T02:24:28.383Z,10.35
2023-04-12T02:24:39.788Z,10.30
2023-04-12T02:24:51.321Z,10.52
2023-04-12T02:25:05.223Z,10.75
2023-04-12T02:25:16.893Z,10.18
2023-04-12T02:25:28.386Z,10.05
2023-04-12T02:25:39.793Z,10.60
2023-04-12T02:25:51.429Z,10.75
2023-04-12T02:26:02.863Z,10.73
2023-04-12T02:26:14.310Z,10.35
2023-04-12T02:26:26.751Z,9.95
2023-04-12T02:26:38.736Z,9.60
2023-04-12T02:26:50.100Z,10.32
2023-04-12T02:27:01.444Z,10.38
2023-04-12T02:27:14.400Z,10.40
2023-04-12T02:27:25.753Z,10.18
2023-04-12T02:27:37.234Z,10.23
2023-04-12T02:27:48.629Z,10.27
2023-04-12T02:28:02.596Z,10.55
2023-04-12T02:28:13.999Z,11.23
2023-04-12T02:28:25.487Z,10.77
2023-04-12T02:28:38.200Z,10.65
2023-04-12T02:28:49.534Z,10.75
2023-04-12T02:29:01.496Z,11.10
2023-04-12T02:29:12.850Z,10.93
2023-04-12T02:29:25.399Z,11.10
2023-04-12T02:29:36.753Z,10.48
2023-04-12T02:29:48.148Z,10.52
2023-04-12T02:30:00.798Z,10.80
2023-04-12T02:30:13.545Z,10.93
2023-04-12T02:30:25.356Z,10.75
2023-04-12T02:30:36.809Z,10.60
2023-04-12T02:30:48.627Z,10.90
2023-04-12T02:31:02.429Z,10.57
2023-04-12T02:31:13.792Z,10.70
2023-04-12T02:31:25.513Z,10.52
2023-04-12T02:31:37.788Z,10.25
2023-04-12T02:31:49.518Z,10.57
2023-04-12T02:32:00.856Z,10.80
2023-04-12T02:32:12.412Z,11.10
2023-04-12T02:32:24.012Z,10.77
2023-04-12T02:32:36.348Z,10.60
2023-04-12T02:32:48.557Z,10.50
2023-04-12T02:33:00.585Z,10.40
2023-04-12T02:33:12.133Z,10.10
2023-04-12T02:33:23.618Z,9.93
2023-04-12T02:33:35.057Z,10.10
2023-04-12T02:33:46.405Z,10.35
2023-04-12T02:33:58.363Z,10.10
2023-04-12T02:34:09.805Z,10.02
2023-04-12T02:34:21.193Z,10.60
2023-04-12T02:34:35.449Z,10.40
2023-04-12T02:34:46.875Z,10.52
2023-04-12T02:34:58.208Z,10.30
2023-04-12T02:35:13.782Z,10.20
2023-04-12T02:35:25.222Z,10.65
2023-04-12T02:35:36.923Z,11.45
2023-04-12T02:35:48.381Z,11.15
2023-04-12T02:36:00.035Z,10.55
2023-04-12T02:36:11.558Z,10.02
2023-04-12T02:36:23.020Z,10.63
2023-04-12T02:36:36.666Z,10.48
2023-04-12T02:36:48.964Z,10.23
2023-04-12T02:37:00.333Z,10.60
2023-04-12T02:37:11.719Z,10.63
2023-04-12T02:37:25.990Z,10.98
2023-04-12T02:37:37.421Z,10.82
2023-04-12T02:37:48.847Z,10.45
2023-04-12T02:38:01.451Z,10.52
2023-04-12T02:38:12.818Z,10.32
2023-04-12T02:38:24.382Z,10.35
2023-04-12T02:38:35.713Z,10.48
2023-04-12T02:38:47.105Z,10.68
2023-04-12T02:38:58.513Z,10.57
2023-04-12T02:39:09.899Z,10.38
2023-04-12T02:39:21.590Z,10.15
2023-04-12T02:39:34.266Z,9.93
2023-04-12T02:39:45.640Z,10.00
2023-04-12T02:39:57.077Z,10.15
2023-04-12T02:40:09.076Z,10.85
2023-04-12T02:40:20.474Z,11.10
2023-04-12T02:40:34.133Z,10.63
2023-04-12T02:40:45.546Z,10.43
2023-04-12T02:40:56.961Z,10.30
2023-04-12T02:41:08.617Z,10.70
2023-04-12T02:41:22.296Z,10.90
2023-04-12T02:41:34.820Z,11.55
2023-04-12T02:41:46.298Z,11.48
2023-04-12T02:41:58.284Z,11.25
2023-04-12T02:42:09.655Z,11.10
2023-04-12T02:42:21.032Z,11.27
2023-04-12T02:42:34.336Z,11.02
2023-04-12T02:42:47.104Z,11.45
2023-04-12T02:42:58.703Z,11.27
2023-04-12T02:43:11.104Z,11.05
2023-04-12T02:43:22.494Z,11.02
2023-04-12T02:43:33.992Z,11.25
2023-04-12T02:43:46.779Z,11.18
2023-04-12T02:43:59.124Z,10.55
2023-04-12T02:44:15.688Z,10.80
2023-04-12T02:44:29.751Z,10.65
2023-04-12T02:44:44.132Z,11.13
2023-04-12T02:44:55.536Z,11.68
2023-04-12T02:45:08.776Z,11.48
2023-04-12T02:45:20.188Z,11.07
2023-04-12T02:45:31.579Z,10.73
2023-04-12T02:45:42.951Z,10.43
2023-04-12T02:45:56.910Z,10.15
2023-04-12T02:46:08.401Z,10.27
2023-04-12T02:46:24.388Z,10.48
2023-04-12T02:46:38.648Z,11.05
2023-04-12T02:46:50.032Z,11.10
2023-04-12T02:47:02.628Z,11.02
2023-04-12T02:47:14.342Z,11.07
2023-04-12T02:47:25.803Z,10.48
2023-04-12T02:47:37.360Z,10.35
2023-04-12T02:47:49.150Z,10.30
2023-04-12T02:48:00.681Z,10.55
2023-04-12T02:48:12.254Z,10.55
2023-04-12T02:48:24.019Z,10.50
2023-04-12T02:48:35.437Z,10.40
2023-04-12T02:48:47.119Z,10.23
2023-04-12T02:48:59.660Z,10.55
2023-04-12T02:49:11.056Z,10.73
2023-04-12T02:49:22.756Z,10.73
2023-04-12T02:49:34.382Z,10.70
2023-04-12T02:49:46.147Z,11.00
2023-04-12T02:49:58.107Z,10.73
2023-04-12T02:50:09.511Z,10.48
2023-04-12T02:50:20.976Z,10.52
2023-04-12T02:50:32.400Z,10.80
2023-04-12T02:50:43.832Z,10.82
2023-04-12T02:50:55.246Z,11.10
2023-04-12T02:51:07.005Z,11.07
2023-04-12T02:51:18.448Z,11.10
2023-04-12T02:51:29.813Z,11.00
2023-04-12T02:51:41.241Z,10.90
2023-04-12T02:51:52.657Z,10.90
2023-04-12T02:52:04.243Z,10.63
2023-04-12T02:52:15.628Z,10.25
2023-04-12T02:52:26.928Z,9.57
2023-04-12T02:52:38.603Z,9.32
2023-04-12T02:52:49.986Z,9.73
2023-04-12T02:53:01.410Z,9.93
2023-04-12T02:53:15.320Z,9.77
2023-04-12T02:53:26.706Z,9.93
2023-04-12T02:53:38.093Z,10.20
2023-04-12T02:53:49.479Z,10.55
2023-04-12T02:54:00.926Z,10.70
2023-04-12T02:54:12.349Z,10.73
2023-04-12T02:54:23.803Z,10.98
2023-04-12T02:54:35.190Z,10.35
2023-04-12T02:54:46.820Z,9.90
2023-04-12T02:54:58.217Z,10.18
2023-04-12T02:55:09.773Z,10.93
2023-04-12T02:55:21.589Z,10.25
2023-04-12T02:55:34.426Z,10.23
2023-04-12T02:55:47.145Z,10.25
2023-04-12T02:55:58.501Z,10.63
2023-04-12T02:56:09.949Z,10.65
2023-04-12T02:56:21.378Z,10.73
2023-04-12T02:56:35.729Z,10.60
2023-04-12T02:56:47.071Z,10.63
2023-04-12T02:57:01.231Z,11.40
2023-04-12T02:57:13.630Z,11.90
2023-04-12T02:57:25.138Z,11.50
2023-04-12T02:57:36.569Z,10.68
2023-04-12T02:57:47.958Z,10.45
2023-04-12T02:57:59.280Z,10.30
2023-04-12T02:58:10.617Z,10.80